createdAt,value
2023-12-28T00:03:16.502Z,101195.53
2023-12-28T00:08:18.627Z,101181.84
2023-12-28T00:13:20.769Z,101198.66
2023-12-28T00:18:23.773Z,101185.16
2023-12-28T00:23:26.288Z,101189.91
2023-12-28T00:28:28.371Z,101206.91
2023-12-28T00:33:30.517Z,101218.00
2023-12-28T00:38:32.659Z,101213.00
2023-12-28T00:43:35.047Z,101193.09
2023-12-28T00:48:37.285Z,101214.50
2023-12-28T00:53:39.617Z,101202.38
2023-12-28T00:58:42.227Z,101209.16
2023-12-28T01:03:44.588Z,101222.41
2023-12-28T01:08:46.776Z,101226.97
2023-12-28T01:13:48.910Z,101224.06
2023-12-28T01:18:51.192Z,101208.50
2023-12-28T01:23:53.460Z,101211.25
2023-12-28T01:28:55.673Z,101213.94
2023-12-28T01:33:57.948Z,101197.59
2023-12-28T01:39:00.167Z,101194.94
2023-12-28T01:44:02.323Z,101200.22
2023-12-28T01:49:06.075Z,101198.00
2023-12-28T01:54:08.416Z,101182.84
2023-12-28T01:59:10.590Z,101171.38
2023-12-28T02:04:13.869Z,101175.78
2023-12-28T02:09:16.077Z,101157.50
2023-12-28T02:14:18.700Z,101153.13
2023-12-28T02:19:56.832Z,101173.22
2023-12-28T02:25:09.714Z,101171.81
2023-12-28T02:30:12.824Z,101158.94
2023-12-28T02:35:23.089Z,101156.25
2023-12-28T02:40:27.502Z,101132.06
2023-12-28T02:45:29.791Z,101138.87
2023-12-28T02:50:34.979Z,101137.22
2023-12-28T02:55:37.078Z,101126.94
2023-12-28T03:00:39.281Z,101137.59
2023-12-28T03:05:42.426Z,101132.78
2023-12-28T03:10:44.718Z,101119.81
2023-12-28T03:15:46.871Z,101111.41
2023-12-28T03:20:48.973Z,101101.09
2023-12-28T03:25:51.171Z,101112.19
2023-12-28T03:30:53.417Z,101111.81
2023-12-28T03:35:55.630Z,101102.59
2023-12-28T03:40:57.716Z,101112.06
2023-12-28T03:45:59.826Z,101102.06
2023-12-28T03:51:01.977Z,101101.78
2023-12-28T03:56:04.289Z,101099.31
2023-12-28T04:01:06.466Z,101072.84
2023-12-28T04:06:08.588Z,101064.75
2023-12-28T04:11:10.992Z,101086.91
2023-12-28T04:16:14.382Z,101086.44
2023-12-28T04:21:16.806Z,101076.81
2023-12-28T04:26:20.849Z,101068.91
2023-12-28T04:31:23.043Z,101063.44
2023-12-28T04:36:25.780Z,101063.13
2023-12-28T04:41:27.850Z,101065.16
2023-12-28T04:46:30.034Z,101058.03
2023-12-28T04:51:32.155Z,101044.06
2023-12-28T04:56:34.284Z,101034.59
2023-12-28T05:01:45.068Z,101052.50
2023-12-28T05:06:47.326Z,101041.38
2023-12-28T05:11:49.486Z,101059.72
2023-12-28T05:16:51.623Z,101063.28
2023-12-28T05:21:53.903Z,101045.62
2023-12-28T05:26:56.081Z,101059.50
2023-12-28T05:31:58.221Z,101066.84
2023-12-28T05:37:00.402Z,101047.41
2023-12-28T05:42:02.665Z,101051.84
2023-12-28T05:47:05.028Z,101057.41
2023-12-28T05:52:08.323Z,101059.72
2023-12-28T05:57:10.787Z,101061.59
2023-12-28T06:02:12.927Z,101063.28
2023-12-28T06:07:15.052Z,101065.81
2023-12-28T06:12:17.534Z,101078.13
2023-12-28T06:17:19.960Z,101068.44
2023-12-28T06:22:22.151Z,101081.81
2023-12-28T06:27:27.322Z,101079.31
2023-12-28T06:32:31.396Z,101074.31
2023-12-28T06:37:33.773Z,101077.69
2023-12-28T06:42:35.942Z,101094.41
2023-12-28T06:47:38.523Z,101084.91
2023-12-28T06:52:40.690Z,101096.62
2023-12-28T06:57:42.865Z,101110.12
2023-12-28T07:02:45.031Z,101108.91
2023-12-28T07:07:47.314Z,101122.44
2023-12-28T07:12:49.513Z,101107.91
2023-12-28T07:17:52.037Z,101100.50
2023-12-28T07:22:55.031Z,101105.13
2023-12-28T07:27:57.743Z,101102.38
2023-12-28T07:33:00.216Z,101112.06
2023-12-28T07:38:02.845Z,101107.91
2023-12-28T07:43:05.115Z,101131.38
2023-12-28T07:48:07.811Z,101122.56
2023-12-28T07:53:10.238Z,101127.81
2023-12-28T07:58:12.349Z,101125.37
2023-12-28T08:03:16.787Z,101115.31
2023-12-28T08:08:19.026Z,101122.81
2023-12-28T08:13:22.464Z,101113.19
2023-12-28T08:18:25.047Z,101110.66
2023-12-28T08:23:27.314Z,101121.94
2023-12-28T08:28:29.831Z,101126.56
2023-12-28T08:33:32.130Z,101125.91
2023-12-28T08:38:34.490Z,101139.22
2023-12-28T08:43:37.706Z,101133.03
2023-12-28T08:48:40.147Z,101129.88
2023-12-28T08:53:42.741Z,101139.72
2023-12-28T08:58:45.693Z,101133.56
2023-12-28T09:03:52.834Z,101136.56
2023-12-28T09:08:55.336Z,101133.09
2023-12-28T09:13:58.184Z,101123.00
2023-12-28T09:19:00.568Z,101129.84
2023-12-28T09:24:03.831Z,101103.91
2023-12-28T09:29:05.926Z,101116.56
2023-12-28T09:34:08.250Z,101105.78
2023-12-28T09:39:10.826Z,101092.69
2023-12-28T09:44:13.876Z,101084.37
2023-12-28T09:49:17.435Z,101075.97
2023-12-28T09:54:19.816Z,101077.37
2023-12-28T09:59:22.201Z,101069.50
2023-12-28T10:04:24.803Z,101077.94
2023-12-28T10:09:28.107Z,101057.87
2023-12-28T10:14:30.390Z,101056.25
2023-12-28T10:19:33.250Z,101056.34
2023-12-28T10:24:35.570Z,101046.22
2023-12-28T10:29:37.836Z,101028.28
2023-12-28T10:34:40.458Z,101037.19
2023-12-28T10:39:52.880Z,101035.34
2023-12-28T10:45:02.622Z,101032.34
2023-12-28T10:50:07.186Z,101019.66
2023-12-28T10:55:21.619Z,101010.84
2023-12-28T11:00:31.954Z,101017.03
2023-12-28T11:05:36.371Z,101002.84
2023-12-28T11:10:39.857Z,101008.69
2023-12-28T11:15:42.505Z,100988.22
2023-12-28T11:20:45.385Z,100976.78
2023-12-28T11:25:47.598Z,100977.41
2023-12-28T11:30:50.218Z,100961.06
2023-12-28T11:35:53.588Z,100957.22
2023-12-28T11:40:58.381Z,100963.44
2023-12-28T11:46:01.595Z,100946.94
2023-12-28T11:51:04.432Z,100930.62
2023-12-28T11:56:10.417Z,100925.94
2023-12-28T12:01:13.165Z,100888.66
2023-12-28T12:06:15.373Z,100904.09
2023-12-28T12:11:19.640Z,100905.22
2023-12-28T12:16:21.863Z,100892.00
2023-12-28T12:21:25.384Z,100895.53
2023-12-28T12:26:28.001Z,100881.41
2023-12-28T12:31:30.351Z,100881.28
2023-12-28T12:36:32.781Z,100879.38
2023-12-28T12:41:35.390Z,100868.56
2023-12-28T12:46:37.518Z,100848.97
2023-12-28T12:51:39.909Z,100864.50
2023-12-28T12:56:46.708Z,100865.03
2023-12-28T13:01:53.787Z,100840.97
2023-12-28T13:06:56.012Z,100842.00
2023-12-28T13:11:58.896Z,100826.25
2023-12-28T13:17:01.024Z,100820.47
2023-12-28T13:22:03.398Z,100816.03
2023-12-28T13:27:05.731Z,100825.44
2023-12-28T13:32:07.854Z,100830.22
2023-12-28T13:37:10.074Z,100827.31
2023-12-28T13:42:12.175Z,100845.59
2023-12-28T13:47:14.232Z,100837.78
2023-12-28T13:52:16.314Z,100821.34
2023-12-28T13:57:18.420Z,100834.75
2023-12-28T14:02:22.807Z,100844.66
2023-12-28T14:07:25.831Z,100844.06
2023-12-28T14:12:28.067Z,100833.19
2023-12-28T14:17:31.477Z,100841.44
2023-12-28T14:22:34.099Z,100831.38
2023-12-28T14:27:36.582Z,100825.34
2023-12-28T14:32:39.197Z,100823.56
2023-12-28T14:37:41.412Z,100832.72
2023-12-28T14:42:43.529Z,100845.53
2023-12-28T14:47:46.368Z,100835.41
2023-12-28T14:52:48.842Z,100853.72
2023-12-28T14:57:50.958Z,100857.47
2023-12-28T15:02:53.055Z,100859.53
2023-12-28T15:07:55.227Z,100861.06
2023-12-28T15:12:57.709Z,100840.56
2023-12-28T15:18:00.745Z,100823.22
2023-12-28T15:23:03.675Z,100830.25
2023-12-28T15:28:07.221Z,100844.81
2023-12-28T15:33:09.533Z,100829.41
2023-12-28T15:38:11.749Z,100832.00
2023-12-28T15:43:13.863Z,100835.97
2023-12-28T15:48:16.167Z,100810.53
2023-12-28T15:53:18.731Z,100795.22
2023-12-28T15:58:23.544Z,100826.19
2023-12-28T16:03:25.695Z,100831.62
2023-12-28T16:08:27.879Z,100825.19
2023-12-28T16:13:30.061Z,100827.94
2023-12-28T16:18:32.695Z,100826.53
2023-12-28T16:23:35.526Z,100813.34
2023-12-28T16:28:37.955Z,100812.09
2023-12-28T16:33:40.262Z,100809.59
2023-12-28T16:38:42.734Z,100785.38
2023-12-28T16:43:44.935Z,100796.56
2023-12-28T16:48:47.214Z,100802.16
2023-12-28T16:53:49.672Z,100815.81
2023-12-28T16:58:51.796Z,100822.63
2023-12-28T17:03:54.467Z,100823.06
2023-12-28T17:08:56.745Z,100832.16
2023-12-28T17:13:59.070Z,100837.06
2023-12-28T17:19:01.701Z,100835.81
2023-12-28T17:24:07.477Z,100829.22
2023-12-28T17:29:11.353Z,100841.81
2023-12-28T17:34:13.940Z,100855.44
2023-12-28T17:39:16.613Z,100848.81
2023-12-28T17:44:25.777Z,100854.94
2023-12-28T17:49:29.987Z,100853.84
2023-12-28T17:54:32.366Z,100874.75
2023-12-28T17:59:34.504Z,100866.00
2023-12-28T18:04:36.695Z,100848.38
2023-12-28T18:09:41.836Z,100870.69
2023-12-28T18:14:44.186Z,100849.38
2023-12-28T18:19:47.252Z,100849.97
2023-12-28T18:24:50.986Z,100851.84
2023-12-28T18:29:54.454Z,100854.94
2023-12-28T18:34:56.830Z,100833.34
2023-12-28T18:39:59.020Z,100848.19
2023-12-28T18:45:01.270Z,100831.56
2023-12-28T18:50:03.818Z,100835.38
2023-12-28T18:55:06.651Z,100840.97
2023-12-28T19:00:09.380Z,100826.56
2023-12-28T19:05:11.596Z,100840.78
2023-12-28T19:10:13.812Z,100818.78
2023-12-28T19:15:18.340Z,100834.41
2023-12-28T19:20:20.690Z,100812.38
2023-12-28T19:25:22.901Z,100815.53
2023-12-28T19:30:25.249Z,100826.50
2023-12-28T19:35:27.361Z,100814.72
2023-12-28T19:40:29.495Z,100810.44
2023-12-28T19:45:31.679Z,100825.78
2023-12-28T19:50:33.890Z,100810.19
2023-12-28T19:55:36.062Z,100796.97
2023-12-28T20:00:39.708Z,100795.12
2023-12-28T20:05:41.990Z,100822.12
2023-12-28T20:10:44.248Z,100814.53
2023-12-28T20:15:48.068Z,100827.84
2023-12-28T20:20:52.334Z,100836.09
2023-12-28T20:25:54.468Z,100845.25
2023-12-28T20:30:56.699Z,100838.38
2023-12-28T20:35:58.883Z,100837.50
2023-12-28T20:41:01.335Z,100858.22
2023-12-28T20:46:04.044Z,100856.72
2023-12-28T20:51:07.448Z,100856.72
2023-12-28T20:56:09.524Z,100842.22
2023-12-28T21:01:11.706Z,100825.88
2023-12-28T21:06:13.903Z,100841.66
2023-12-28T21:11:16.423Z,100830.50
2023-12-28T21:16:18.648Z,100845.66
2023-12-28T21:21:20.870Z,100846.87
2023-12-28T21:26:23.057Z,100832.75
2023-12-28T21:31:25.486Z,100847.25
2023-12-28T21:36:27.750Z,100841.91
2023-12-28T21:41:31.592Z,100843.94
2023-12-28T21:46:33.757Z,100855.75
2023-12-28T21:51:37.456Z,100827.91
2023-12-28T21:56:40.381Z,100844.97
2023-12-28T22:01:42.682Z,100849.66
2023-12-28T22:06:44.952Z,100842.56
2023-12-28T22:11:47.247Z,100835.19
2023-12-28T22:16:50.806Z,100819.22
2023-12-28T22:21:53.002Z,100816.00
2023-12-28T22:26:55.397Z,100820.50
2023-12-28T22:31:57.690Z,100830.00
2023-12-28T22:36:59.886Z,100848.00
2023-12-28T22:42:02.035Z,100821.41
2023-12-28T22:47:04.352Z,100823.00
2023-12-28T22:52:09.026Z,100836.66
2023-12-28T22:57:12.352Z,100819.13
2023-12-28T23:02:14.587Z,100821.34
2023-12-28T23:07:18.158Z,100818.66
2023-12-28T23:12:20.498Z,100826.59
2023-12-28T23:17:22.660Z,100829.44
2023-12-28T23:22:25.112Z,100812.56
2023-12-28T23:27:34.099Z,100815.63
2023-12-28T23:32:36.786Z,100813.22
2023-12-28T23:37:39.188Z,100808.31
2023-12-28T23:42:42.133Z,100792.25
2023-12-28T23:47:44.522Z,100800.66
2023-12-28T23:52:46.738Z,100802.59
2023-12-28T23:57:48.914Z,100805.19
